Julian Carroll Airport
KJKL : rendu visible

Aérodrome :











RETROUVEZ-NOUS SUR...

 
LOGIN :

S'inscrire | Disclaimer

   EN    FR    IT 

 









Légende :    VFR   VFR Marginal   IFR   IFR Intensif   IFR Très Intensif
Visi : 
Plafond : 
>= 8 km
>= 3000ft
5 à 8 km
1000 à 3000 ft
1500m à 5 km
500 à 1000 ft
800 à 1500m
200 à 500 ft
< 800m
< 200 ft
Symboles :   Orages  Brouillard  Fortes neiges  Fortes précipitations  Vent > 20 kt






- Altitude de l'aérodrome : 1381 ft


KJKL - Julian Carroll

DERNIER METAR :
  • 101003Z AUTO VRB05KT 9SM UP BKN021 BKN028 OVC055 02/M01 A2991 RMK AO2 UPB02 P0000 T00171011

METARs EXPIRÉS :
  • 100853Z AUTO 27005G15KT 10SM FEW029 SCT035 BKN090 02/M01 A2988 RMK AO2 SLP120 60002 T00171011 53012
  • 100753Z AUTO 28007KT 250V310 10SM SCT048 OVC065 02/M01 A2986 RMK AO2 SNE19 SLP113 P0002 T00171006

TAF KJKL
Valide du 10 à 06h jusqu'au 11 à 06h UTC


100539Z 1006/1106 32010G19KT P6SM VCSH SCT030 BKN070
FM101000 30009KT P6SM SCT035 BKN090
FM101500 29010G18KT P6SM SKC
FM110200 00000KT P6SM SKC



MET'MAP, la Météo Aéronautique d'un coup d'oeil ! - Copyright ORBIFLY Décembre 2007 - Disclaimer

ORBIFLY MET'MAP TEAM :

Programmation & Développement : Alexandra Zaïnal
Sur une idée originale de : Baudouin d'Aumeries
Assistance à la programmation : Marc-Olivier Méhu
Soutien technique & logistique : Manuel Goepfert

Contact : metmap@orbifly.com




SOURCES & CREDITS :

   NOAA       Earth
Advisory